Utilizamos cookies propias y de terceros para ofrecer nuestros servicios, recoger información estadística e incluir publicidad. Si continua navegando acepta su instalación y uso. Puede cambiar la configuración u obtener más información en nuestra ACEPTAR | Más información

 INFORMACIÓN METAR y TAF
METAR FOR LEZG
ADDS - METARS form results

(0718 UTC 25 September 2018)
Data provider http://aviationweather.gov/metar/data/
 
METAR text: LEZG 250700Z 28009KT CAVOK 13/06 Q1027
Conditions at: LEZG (ZARAGOZA (MIL/CI, ES) observed 0700 UTC 25 September 2018
Temperature: 13.0°C (55°F)
Dewpoint: 6.0°C (43°F) [RH = 62%]
Pressure (altimeter): 30.32 inches Hg (1027.0 mb)
Winds: from the W (280 degrees) at 10 MPH (9 knots; 4.6 m/s)
Visibility: 6 or more miles (10+ km)
Ceiling: ceiling and visibility are OK
Clouds: unknown
Weather: no significant weather observed at this time

METAR text: LEZG 250630Z 29008KT CAVOK 12/06 Q1026
Conditions at: LEZG (ZARAGOZA (MIL/CI, ES) observed 0630 UTC 25 September 2018
Temperature: 12.0°C (54°F)
Dewpoint: 6.0°C (43°F) [RH = 67%]
Pressure (altimeter): 30.30 inches Hg (1026.0 mb)
Winds: from the WNW (290 degrees) at 9 MPH (8 knots; 4.1 m/s)
Visibility: 6 or more miles (10+ km)
Ceiling: ceiling and visibility are OK
Clouds: unknown
Weather: no significant weather observed at this time

Forecast for: LEZG (ZARAGOZA (MIL/CI, ES)
Text: TAF LEZG 250500Z 2506/2606 30010KT CAVOK TX24/2514Z TN12/2506Z
Forecast period: 0600 to 1200 UTC 25 September 2018
Forecast type: FROM: standard forecast or significant change
Winds: from the WNW (300 degrees) at 12 MPH (10 knots; 5.1 m/s)
Visibility: 6 or more miles 10+ km)
Ceiling: unknown
Clouds: missing
Weather: no significant weather forecast for this period
Text: BECMG 2512/2514 09008KT
Forecast period: 1200 UTC 25 September 2018 to 0600 UTC 26 September 2018
Forecast type: BECOMING: Conditions expected to become as follows by 1400 UTC 25 September 2018
Winds: from the E (90 degrees) at 9 MPH (8 knots; 4.1 m/s)
Visibility: 6 or more miles 10+ km)
Ceiling: unknown
Clouds: missing
Weather: no significant weather forecast for this period

 MAPA DE AEROPUERTO

 INFORMACIÓN DE PISTA
Pista 12L Longitud 9843 ft Ancho 148 ft
Elevación 823 ft Umbral desplazado 0 ft Rumbo de pista 120
Pista 30R Longitud 9843 ft Ancho 148 ft
Elevación 834 ft Umbral desplazado 0 ft Rumbo de pista 300
Pista 12R Longitud 12198 ft Ancho 148 ft
Elevación 834 ft Umbral desplazado 0 ft Rumbo de pista 120
Pista 30L Longitud 12198 ft Ancho 148 ft
Elevación 863 ft Umbral desplazado 0 ft Rumbo de pista 300

 FRECUANCIAS DEL AEROPUERTO
Tipo APP Nombre APP Frecuencia 119.3 MHZ
Tipo GND Nombre GND Frecuencia 118.1 MHZ
Tipo TWR Nombre TWR Frecuencia 118.1 MHZ

 RADIO AYUDAS DEL AEROPUERTO
Tipo VOR-DME Nombre Zaragoza Frecuencia 113000 KHZ
Tipo NDB Nombre Zaragoza Frecuencia 389 KHZ
Tipo TACAN Nombre Zaragoza Frecuencia 133700 KHZ
Tipo NDB Nombre Zaragoza Frecuencia 348 KHZ

AVISO LEGAL - POLITICA DE COOKIES - POLITICA DE PRIVACIDAD